Time,TemperatureF,DewpointF,PressureIn,WindDirection,WindDirectionDegrees,WindSpeedMPH,WindSpeedGustMPH,Humidity,HourlyPrecipIn,Conditions,Clouds,dailyrainin,SoftwareType,DateUTC
2013-05-13 00:00:00,43.0,39.0,29.41,NNW,328,0.0,0.0,86,0.00,,,0.00,weatherlink.com 1.10,2013-05-13 04:00:00,
2013-05-13 00:15:00,42.4,39.0,30.12,NNW,328,0.0,0.0,87,0.00,,,0.00,weatherlink.com 1.10,2013-05-13 04:15:00,
2013-05-13 00:45:00,41.8,39.0,30.12,NNW,328,0.0,0.0,89,0.00,,,0.00,weatherlink.com 1.10,2013-05-13 04:45:00,
2013-05-13 01:00:00,41.4,39.0,30.12,NNW,328,0.0,0.0,90,0.00,,,0.00,weatherlink.com 1.10,2013-05-13 05:00:00,
2013-05-13 01:15:00,41.1,38.0,30.13,NNW,328,0.0,0.0,90,0.00,,,0.00,weatherlink.com 1.10,2013-05-13 05:15:00,
2013-05-13 01:31:00,40.7,38.0,30.12,NNW,329,0.0,0.0,90,0.00,,,0.00,weatherlink.com 1.10,2013-05-13 05:31:00,
2013-05-13 01:46:00,40.2,38.0,30.12,NNW,328,0.0,0.0,90,0.00,,,0.00,weatherlink.com 1.10,2013-05-13 05:46:00,
2013-05-13 02:01:00,39.8,37.0,30.12,NNW,328,0.0,0.0,91,0.00,,,0.00,weatherlink.com 1.10,2013-05-13 06:01:00,
2013-05-13 02:16:00,39.9,38.0,30.12,NNW,329,0.0,0.0,92,0.00,,,0.00,weatherlink.com 1.10,2013-05-13 06:16:00,
2013-05-13 02:31:00,39.6,38.0,30.12,NNW,328,0.0,0.0,92,0.00,,,0.00,weatherlink.com 1.10,2013-05-13 06:31:00,
2013-05-13 02:46:00,39.3,37.0,30.12,NNW,328,0.0,0.0,92,0.00,,,0.00,weatherlink.com 1.10,2013-05-13 06:46:00,
2013-05-13 03:01:00,38.9,37.0,30.11,NNW,329,0.0,0.0,92,0.00,,,0.00,weatherlink.com 1.10,2013-05-13 07:01:00,
2013-05-13 03:16:00,38.5,36.0,30.12,NNW,329,0.0,0.0,92,0.00,,,0.00,weatherlink.com 1.10,2013-05-13 07:16:00,
2013-05-13 03:31:00,38.1,36.0,30.12,NNW,329,0.0,0.0,92,0.00,,,0.00,weatherlink.com 1.10,2013-05-13 07:31:00,
2013-05-13 03:46:00,38.2,36.0,29.77,NNW,329,0.0,0.0,93,0.00,,,0.00,weatherlink.com 1.10,2013-05-13 07:46:00,
2013-05-13 04:16:00,38.3,37.0,30.12,NNW,329,0.0,0.0,93,0.00,,,0.00,weatherlink.com 1.10,2013-05-13 08:16:00,
2013-05-13 04:31:00,38.4,37.0,30.12,NNW,328,0.0,0.0,94,0.00,,,0.00,weatherlink.com 1.10,2013-05-13 08:31:00,
2013-05-13 04:46:00,38.3,37.0,30.12,NNW,329,0.0,0.0,93,0.00,,,0.00,weatherlink.com 1.10,2013-05-13 08:46:00,
2013-05-13 05:16:00,37.7,36.0,30.13,NNW,328,0.0,0.0,93,0.00,,,0.00,weatherlink.com 1.10,2013-05-13 09:16:00,
2013-05-13 05:31:00,37.4,36.0,30.13,NNW,328,0.0,0.0,93,0.00,,,0.00,weatherlink.com 1.10,2013-05-13 09:31:00,
2013-05-13 06:01:00,36.5,35.0,30.15,NNW,328,0.0,0.0,93,0.00,,,0.00,weatherlink.com 1.10,2013-05-13 10:01:00,
2013-05-13 06:16:00,36.1,34.0,30.15,NNW,329,0.0,0.0,93,0.00,,,0.00,weatherlink.com 1.10,2013-05-13 10:16:00,
2013-05-13 06:31:00,36.1,35.0,30.15,NNW,329,0.0,0.0,94,0.00,,,0.00,weatherlink.com 1.10,2013-05-13 10:31:00,
2013-05-13 07:01:00,35.5,34.0,30.17,NNW,328,0.0,0.0,94,0.00,,,0.00,weatherlink.com 1.10,2013-05-13 11:01:00,
2013-05-13 07:16:00,35.5,34.0,30.18,NNW,328,0.0,0.0,94,0.00,,,0.00,weatherlink.com 1.10,2013-05-13 11:16:00,
2013-05-13 07:31:00,35.9,34.0,30.19,NNW,329,0.0,0.0,94,0.00,,,0.00,weatherlink.com 1.10,2013-05-13 11:31:00,
2013-05-13 08:01:00,39.1,38.0,30.19,NNW,348,0.0,1.0,95,0.00,,,0.00,weatherlink.com 1.10,2013-05-13 12:01:00,
2013-05-13 08:16:00,41.1,40.0,30.20,NNW,344,0.0,0.0,95,0.00,,,0.00,weatherlink.com 1.10,2013-05-13 12:16:00,
2013-05-13 08:31:00,43.0,42.0,30.20,ENE,61,0.0,0.0,95,0.00,,,0.00,weatherlink.com 1.10,2013-05-13 12:31:00,
2013-05-13 08:46:00,46.8,42.0,30.21,ENE,61,0.0,1.0,84,0.00,,,0.00,weatherlink.com 1.10,2013-05-13 12:46:00,
2013-05-13 09:01:00,51.5,43.0,30.21,ENE,60,0.0,1.0,72,0.00,,,0.00,weatherlink.com 1.10,2013-05-13 13:01:00,
2013-05-13 09:16:00,55.2,43.0,30.22,ENE,61,0.0,2.0,63,0.00,,,0.00,weatherlink.com 1.10,2013-05-13 13:16:00,
2013-05-13 09:31:00,57.5,43.0,30.22,ENE,76,0.0,1.0,59,0.00,,,0.00,weatherlink.com 1.10,2013-05-13 13:31:00,
2013-05-13 09:47:00,58.6,42.0,30.22,East,94,0.0,2.0,54,0.00,,,0.00,weatherlink.com 1.10,2013-05-13 13:47:00,
2013-05-13 10:02:00,61.6,43.0,30.22,NNE,22,0.0,2.0,50,0.00,,,0.00,weatherlink.com 1.10,2013-05-13 14:02:00,
2013-05-13 10:17:00,61.2,40.0,30.22,SE,133,0.0,4.0,46,0.00,,,0.00,weatherlink.com 1.10,2013-05-13 14:17:00,
2013-05-13 10:32:00,60.1,40.0,30.21,SE,141,0.0,4.0,47,0.00,,,0.00,weatherlink.com 1.10,2013-05-13 14:32:00,
2013-05-13 10:47:00,60.3,39.0,30.22,ENE,65,2.0,5.0,46,0.00,,,0.00,weatherlink.com 1.10,2013-05-13 14:47:00,
2013-05-13 11:03:00,61.7,42.0,30.22,SE,134,1.0,4.0,48,0.00,,,0.00,weatherlink.com 1.10,2013-05-13 15:03:00,
2013-05-13 11:17:00,63.9,42.0,30.22,ESE,117,2.0,7.0,45,0.00,,,0.00,weatherlink.com 1.10,2013-05-13 15:17:00,
2013-05-13 11:32:00,63.3,44.0,30.22,SE,126,0.0,3.0,50,0.00,,,0.00,weatherlink.com 1.10,2013-05-13 15:32:00,
2013-05-13 11:47:00,64.7,41.0,30.22,SSE,167,1.0,5.0,42,0.00,,,0.00,weatherlink.com 1.10,2013-05-13 15:47:00,
2013-05-13 12:02:00,65.5,39.0,30.21,NW,325,0.0,6.0,38,0.00,,,0.00,weatherlink.com 1.10,2013-05-13 16:02:00,
2013-05-13 12:17:00,66.0,41.0,30.21,ESE,118,2.0,5.0,41,0.00,,,0.00,weatherlink.com 1.10,2013-05-13 16:17:00,
2013-05-13 12:32:00,65.4,42.0,30.20,SSW,197,0.0,6.0,42,0.00,,,0.00,weatherlink.com 1.10,2013-05-13 16:32:00,
2013-05-13 12:47:00,66.1,38.0,30.20,NNW,338,1.0,4.0,36,0.00,,,0.00,weatherlink.com 1.10,2013-05-13 16:47:00,
2013-05-13 13:02:00,66.3,38.0,30.20,NW,304,0.0,9.0,35,0.00,,,0.00,weatherlink.com 1.10,2013-05-13 17:02:00,
2013-05-13 13:17:00,67.4,43.0,30.19,East,91,0.0,4.0,41,0.00,,,0.00,weatherlink.com 1.10,2013-05-13 17:17:00,
2013-05-13 13:32:00,67.9,41.0,30.19,ESE,117,0.0,5.0,37,0.00,,,0.00,weatherlink.com 1.10,2013-05-13 17:32:00,
2013-05-13 13:47:00,68.1,41.0,30.18,NE,55,0.0,4.0,37,0.00,,,0.00,weatherlink.com 1.10,2013-05-13 17:47:00,
2013-05-13 14:02:00,68.5,41.0,30.18,NNE,15,1.0,4.0,37,0.00,,,0.00,weatherlink.com 1.10,2013-05-13 18:02:00,
2013-05-13 14:17:00,68.8,42.0,30.17,ENE,78,0.0,2.0,38,0.00,,,0.00,weatherlink.com 1.10,2013-05-13 18:17:00,
2013-05-13 14:32:00,69.7,39.0,30.17,NNW,334,0.0,6.0,33,0.00,,,0.00,weatherlink.com 1.10,2013-05-13 18:32:00,
2013-05-13 15:02:00,69.5,39.0,30.16,West,265,1.0,6.0,33,0.00,,,0.00,weatherlink.com 1.10,2013-05-13 19:02:00,
2013-05-13 15:17:00,70.1,40.0,30.15,North,360,1.0,7.0,33,0.00,,,0.00,weatherlink.com 1.10,2013-05-13 19:17:00,
2013-05-13 15:47:00,70.2,41.0,30.14,North,351,0.0,5.0,35,0.00,,,0.00,weatherlink.com 1.10,2013-05-13 19:47:00,
2013-05-13 16:02:00,70.5,40.0,29.78,NNW,344,1.0,6.0,33,0.00,,,0.00,weatherlink.com 1.10,2013-05-13 20:02:00,
2013-05-13 16:17:00,70.4,40.0,30.13,NW,323,0.0,4.0,33,0.00,,,0.00,weatherlink.com 1.10,2013-05-13 20:17:00,
2013-05-13 16:47:00,70.8,39.0,30.11,NNW,343,2.0,5.0,32,0.00,,,0.00,weatherlink.com 1.10,2013-05-13 20:47:00,
2013-05-13 17:02:00,70.2,38.0,28.70,WNW,302,0.0,3.0,31,0.00,,,0.00,weatherlink.com 1.10,2013-05-13 21:02:00,
2013-05-13 17:17:00,70.9,40.0,30.11,NW,319,0.0,3.0,32,0.00,,,0.00,weatherlink.com 1.10,2013-05-13 21:17:00,
2013-05-13 17:48:00,70.6,40.0,29.72,West,267,2.0,11.0,33,0.00,,,0.00,weatherlink.com 1.10,2013-05-13 21:48:00,
2013-05-13 18:02:00,70.3,39.0,29.72,NNW,328,0.0,6.0,32,0.00,,,0.00,weatherlink.com 1.10,2013-05-13 22:02:00,
2013-05-13 18:48:00,69.9,40.0,29.99,NW,311,0.0,2.0,34,0.00,,,0.00,weatherlink.com 1.10,2013-05-13 22:48:00,
2013-05-13 19:03:00,69.0,41.0,29.93,NNW,330,0.0,6.0,36,0.00,,,0.00,weatherlink.com 1.10,2013-05-13 23:03:00,
2013-05-13 19:18:00,68.4,41.0,30.10,South,176,0.0,6.0,37,0.00,,,0.00,weatherlink.com 1.10,2013-05-13 23:18:00,
2013-05-13 19:48:00,67.1,39.0,30.10,NW,321,1.0,5.0,36,0.00,,,0.00,weatherlink.com 1.10,2013-05-13 23:48:00,
2013-05-13 20:03:00,66.0,40.0,30.10,NW,315,0.0,4.0,38,0.00,,,0.00,weatherlink.com 1.10,2013-05-14 00:03:00,
2013-05-13 20:18:00,64.5,41.0,30.06,NNE,17,0.0,1.0,42,0.00,,,0.00,weatherlink.com 1.10,2013-05-14 00:18:00,
2013-05-13 20:33:00,62.8,42.0,28.71,NNE,17,0.0,1.0,46,0.00,,,0.00,weatherlink.com 1.10,2013-05-14 00:33:00,
2013-05-13 20:48:00,60.6,42.0,28.71,NNE,17,0.0,0.0,50,0.00,,,0.00,weatherlink.com 1.10,2013-05-14 00:48:00,
2013-05-13 21:03:00,58.6,42.0,30.13,NNE,17,0.0,0.0,54,0.00,,,0.00,weatherlink.com 1.10,2013-05-14 01:03:00,
2013-05-13 21:18:00,56.7,41.0,30.14,NNE,17,0.0,0.0,57,0.00,,,0.00,weatherlink.com 1.10,2013-05-14 01:18:00,
2013-05-13 21:48:00,53.7,42.0,30.13,NNE,17,0.0,0.0,64,0.00,,,0.00,weatherlink.com 1.10,2013-05-14 01:48:00,
2013-05-13 22:03:00,52.4,42.0,29.75,NNE,17,0.0,0.0,69,0.00,,,0.00,weatherlink.com 1.10,2013-05-14 02:03:00,
2013-05-13 22:33:00,50.3,43.0,30.09,NNE,17,0.0,0.0,75,0.00,,,0.00,weatherlink.com 1.10,2013-05-14 02:33:00,
2013-05-13 22:48:00,49.5,42.0,30.16,NNE,17,0.0,0.0,76,0.00,,,0.00,weatherlink.com 1.10,2013-05-14 02:48:00,
2013-05-13 23:03:00,48.8,43.0,29.27,NNE,17,0.0,0.0,79,0.00,,,0.00,weatherlink.com 1.10,2013-05-14 03:03:00,
2013-05-13 23:18:00,48.1,43.0,29.39,NNE,17,0.0,0.0,81,0.00,,,0.00,weatherlink.com 1.10,2013-05-14 03:18:00,
2013-05-13 23:48:00,46.9,42.0,30.16,NNE,17,0.0,0.0,83,0.00,,,0.00,weatherlink.com 1.10,2013-05-14 03:48:00,